Time;durP1;ratioP1;P1;durP2;ratioP2;P2;SDS_P1;SDS_P2;PMS_P1;PMS_P2;Temp;Humidity;BMP_temperature;BMP_pressure;BME280_temperature;BME280_humidity;BME280_pressure;Samples;Min_cycle;Max_cycle;Signal;HPM_P1;HPM_P2
2022/07/16 00:01:23;;;;;;;7.70;3.03;;;16.20;99.90;;;;;;5050359;28;20239;-39
2022/07/16 00:03:57;;;;;;;3.00;2.50;;;16.20;99.90;;;;;;5042887;28;20178;-39
2022/07/16 00:06:24;;;;;;;3.30;3.00;;;16.20;99.90;;;;;;5039708;28;20471;-40
2022/07/16 00:08:51;;;;;;;3.50;2.60;;;16.10;99.90;;;;;;5029590;28;20429;-41
2022/07/16 00:11:17;;;;;;;3.20;2.90;;;16.00;99.90;;;;;;5030362;28;20452;-39
2022/07/16 00:13:42;;;;;;;4.17;3.30;;;16.00;99.90;;;;;;5040729;28;20445;-40
2022/07/16 00:16:09;;;;;;;4.03;3.20;;;16.00;99.90;;;;;;5030163;28;20584;-45
2022/07/16 00:21:20;;;;;;;3.00;2.80;;;15.90;99.90;;;;;;5030200;28;20436;-40
2022/07/16 00:23:46;;;;;;;4.23;2.80;;;15.90;99.90;;;;;;5030055;28;20421;-40
2022/07/16 00:26:12;;;;;;;2.80;2.50;;;15.90;99.90;;;;;;5030109;28;20195;-41
2022/07/16 00:28:37;;;;;;;3.97;2.50;;;15.90;99.90;;;;;;5029218;28;20906;-41
2022/07/16 00:31:03;;;;;;;2.93;2.27;;;16.00;99.90;;;;;;5029901;28;20198;-40
2022/07/16 00:33:29;;;;;;;4.47;2.63;;;16.00;99.90;;;;;;5029934;28;20653;-40
2022/07/16 00:35:54;;;;;;;4.90;2.93;;;16.10;99.90;;;;;;5030084;28;20228;-40
2022/07/16 00:38:20;;;;;;;3.27;2.60;;;16.10;99.90;;;;;;5029250;28;20241;-40
2022/07/16 00:40:46;;;;;;;4.77;3.13;;;16.10;99.90;;;;;;5029805;28;20193;-40
2022/07/16 00:43:13;;;;;;;3.43;2.90;;;16.10;99.90;;;;;;5029551;28;20989;-42
2022/07/16 00:45:39;;;;;;;3.10;2.80;;;16.10;99.90;;;;;;5029822;28;20190;-40
2022/07/16 00:48:06;;;;;;;3.03;2.50;;;16.20;99.90;;;;;;5028027;28;20429;-40
2022/07/16 00:50:33;;;;;;;5.27;2.87;;;16.20;99.90;;;;;;5029707;28;20523;-41
2022/07/16 00:53:00;;;;;;;3.90;2.70;;;16.20;99.90;;;;;;5047334;28;20440;-40
2022/07/16 00:55:27;;;;;;;3.23;2.43;;;16.20;99.90;;;;;;5049669;28;20436;-40
2022/07/16 00:57:54;;;;;;;5.27;2.73;;;16.30;99.90;;;;;;5048872;28;20443;-40
2022/07/16 01:00:19;;;;;;;8.83;3.00;;;16.40;99.90;;;;;;5052391;28;20514;-39
2022/07/16 01:02:45;;;;;;;4.47;3.30;;;16.40;99.90;;;;;;5053626;28;20468;-40
2022/07/16 01:05:11;;;;;;;3.73;2.83;;;16.40;99.90;;;;;;5053414;28;20235;-39
2022/07/16 01:07:37;;;;;;;3.20;2.90;;;16.40;99.90;;;;;;5052800;28;20216;-41
2022/07/16 01:10:04;;;;;;;4.67;3.37;;;16.50;99.90;;;;;;5053299;28;20181;-40
2022/07/16 01:12:30;;;;;;;6.30;2.70;;;16.50;99.90;;;;;;5050933;28;20309;-39
2022/07/16 01:14:57;;;;;;;3.47;3.17;;;16.50;99.90;;;;;;5033536;28;20451;-41
2022/07/16 01:17:23;;;;;;;3.40;2.60;;;16.50;99.90;;;;;;5032763;28;20526;-41
2022/07/16 01:19:49;;;;;;;3.67;2.90;;;16.50;99.90;;;;;;5031841;28;21172;-42
2022/07/16 01:22:19;;;;;;;4.43;3.30;;;16.50;99.90;;;;;;5033110;28;20467;-39
2022/07/16 01:24:46;;;;;;;2.90;2.60;;;16.50;99.90;;;;;;5033044;28;20453;-39
2022/07/16 01:27:12;;;;;;;3.00;2.63;;;16.50;99.90;;;;;;5032615;28;20453;-39
2022/07/16 01:29:37;;;;;;;4.80;2.90;;;16.50;99.90;;;;;;5033096;28;20460;-40
2022/07/16 01:32:03;;;;;;;5.00;3.10;;;16.60;99.90;;;;;;5033233;28;20221;-42
2022/07/16 01:34:29;;;;;;;5.33;3.00;;;16.50;99.90;;;;;;5040159;28;20278;-40
2022/07/16 01:37:00;;;;;;;3.37;2.90;;;16.50;99.90;;;;;;5042350;28;20942;-42
2022/07/16 01:39:27;;;;;;;2.97;2.67;;;16.40;99.90;;;;;;5032717;28;20491;-40
2022/07/16 01:41:54;;;;;;;7.07;2.63;;;16.40;99.90;;;;;;5032944;28;20819;-40
2022/07/16 01:44:23;;;;;;;3.40;2.60;;;16.40;99.90;;;;;;5033692;28;20524;-41
2022/07/16 01:46:49;;;;;;;3.30;3.00;;;16.30;99.90;;;;;;5043121;28;20452;-40
2022/07/16 01:49:15;;;;;;;5.50;3.17;;;16.30;99.90;;;;;;5038643;28;20425;-40
2022/07/16 01:51:41;;;;;;;3.77;2.93;;;16.20;99.90;;;;;;5039319;28;20458;-40
2022/07/16 01:54:06;;;;;;;3.20;2.90;;;16.30;99.90;;;;;;5052499;28;20243;-42
2022/07/16 01:56:32;;;;;;;4.90;3.03;;;16.30;99.90;;;;;;5052223;28;20190;-40
2022/07/16 01:58:58;;;;;;;4.27;2.87;;;16.30;99.90;;;;;;5052435;28;20252;-40
2022/07/16 02:01:24;;;;;;;5.30;3.00;;;16.30;99.90;;;;;;5052459;28;20186;-40
2022/07/16 02:03:49;;;;;;;3.77;2.80;;;16.20;99.90;;;;;;5052287;28;20239;-40
2022/07/16 02:06:15;;;;;;;3.70;3.40;;;16.20;99.90;;;;;;5052422;28;20691;-40
2022/07/16 02:08:41;;;;;;;3.33;3.07;;;16.20;99.90;;;;;;5051383;28;20189;-43
2022/07/16 02:11:07;;;;;;;4.63;3.27;;;16.20;99.90;;;;;;5049874;28;20186;-40
2022/07/16 02:13:33;;;;;;;3.30;2.70;;;16.30;99.90;;;;;;5047991;28;20428;-40
2022/07/16 02:15:59;;;;;;;3.30;3.03;;;16.30;99.90;;;;;;5032464;28;20445;-41
2022/07/16 02:18:25;;;;;;;6.70;3.30;;;16.30;99.90;;;;;;5030064;28;20860;-40
2022/07/16 02:20:51;;;;;;;3.60;3.30;;;16.20;99.90;;;;;;5032192;28;20186;-41
2022/07/16 02:23:17;;;;;;;3.20;2.90;;;16.30;99.90;;;;;;5031939;28;20186;-40
2022/07/16 02:25:42;;;;;;;4.93;3.00;;;16.30;99.90;;;;;;5041230;28;20425;-41
2022/07/16 02:28:08;;;;;;;4.30;3.27;;;16.30;99.90;;;;;;5037700;28;20561;-40
2022/07/16 02:30:43;;;;;;;4.90;2.90;;;16.30;99.90;;;;;;5032133;28;20192;-41
2022/07/16 02:33:11;;;;;;;5.10;3.00;;;16.30;99.90;;;;;;5031792;28;20190;-40
2022/07/16 02:35:37;;;;;;;5.67;3.63;;;16.40;99.90;;;;;;5031854;28;20427;-40
2022/07/16 02:38:05;;;;;;;4.03;3.27;;;16.40;99.90;;;;;;5031297;28;20433;-41
2022/07/16 02:40:33;;;;;;;3.77;3.20;;;16.40;99.90;;;;;;5031944;28;20796;-40
2022/07/16 02:42:59;;;;;;;4.00;3.60;;;16.40;99.90;;;;;;5031760;28;20523;-40
2022/07/16 02:45:25;;;;;;;4.50;3.33;;;16.40;99.90;;;;;;5031782;28;20413;-40
2022/07/16 02:47:51;;;;;;;3.27;2.97;;;16.40;99.90;;;;;;5031023;28;20430;-43
2022/07/16 02:50:18;;;;;;;3.50;3.20;;;16.40;99.90;;;;;;5031465;28;20791;-42
2022/07/16 02:52:43;;;;;;;4.40;4.00;;;16.40;99.90;;;;;;5047267;28;20774;-41
2022/07/16 02:55:09;;;;;;;4.60;3.33;;;16.40;99.90;;;;;;5051592;28;20428;-40
2022/07/16 02:57:35;;;;;;;3.83;3.43;;;16.40;99.90;;;;;;5050946;28;20774;-40
2022/07/16 03:00:02;;;;;;;3.73;3.33;;;16.40;99.90;;;;;;5051195;28;20588;-40
2022/07/16 03:02:28;;;;;;;4.93;3.90;;;16.40;99.90;;;;;;5051320;28;20186;-42
2022/07/16 03:04:53;;;;;;;5.90;3.30;;;16.50;99.90;;;;;;5050894;28;20876;-39
2022/07/16 03:07:19;;;;;;;2.93;2.60;;;16.50;99.90;;;;;;5050805;28;20193;-40
2022/07/16 03:09:45;;;;;;;4.07;2.90;;;16.50;99.90;;;;;;5051077;28;20189;-41
2022/07/16 03:12:10;;;;;;;5.77;3.00;;;16.50;99.90;;;;;;5051302;28;20232;-42
2022/07/16 03:14:36;;;;;;;3.97;3.40;;;16.50;99.90;;;;;;5031300;28;20194;-40
2022/07/16 03:17:02;;;;;;;3.23;2.93;;;16.50;99.90;;;;;;5030513;28;20289;-40
2022/07/16 03:19:28;;;;;;;3.43;2.57;;;16.50;99.90;;;;;;5029547;28;20297;-42
2022/07/16 03:21:53;;;;;;;4.47;3.30;;;16.50;99.90;;;;;;5030721;28;20182;-40
2022/07/16 03:24:19;;;;;;;5.73;3.30;;;16.50;99.90;;;;;;5030983;28;20192;-41
2022/07/16 03:26:45;;;;;;;3.37;2.90;;;16.50;99.90;;;;;;5030280;28;20710;-41
2022/07/16 03:29:10;;;;;;;6.00;3.27;;;16.50;99.90;;;;;;5031104;28;20232;-41
2022/07/16 03:31:36;;;;;;;4.43;3.33;;;16.50;99.90;;;;;;5030680;28;20201;-40
2022/07/16 03:34:02;;;;;;;3.93;3.53;;;16.50;99.90;;;;;;5030640;28;20191;-41
2022/07/16 03:36:27;;;;;;;5.03;3.10;;;16.40;99.90;;;;;;5030924;28;20209;-40
2022/07/16 03:39:01;;;;;;;4.57;3.33;;;16.50;99.90;;;;;;5030059;28;20206;-40
2022/07/16 03:41:27;;;;;;;3.50;3.20;;;16.50;99.90;;;;;;5030646;28;20191;-40
2022/07/16 03:43:53;;;;;;;5.70;3.63;;;16.40;99.90;;;;;;5030711;28;20845;-41
2022/07/16 03:46:18;;;;;;;4.40;3.33;;;16.40;99.90;;;;;;5030623;28;20436;-40
2022/07/16 03:48:44;;;;;;;4.97;2.93;;;16.40;99.90;;;;;;5029961;28;20194;-41
2022/07/16 03:51:10;;;;;;;3.43;3.13;;;16.40;99.90;;;;;;5033186;28;21963;-40
2022/07/16 03:53:37;;;;;;;3.57;3.07;;;16.30;99.90;;;;;;5050368;28;20427;-40
2022/07/16 03:56:03;;;;;;;4.80;3.40;;;16.40;99.90;;;;;;5050079;28;20672;-41
2022/07/16 03:58:29;;;;;;;4.90;2.97;;;16.40;99.90;;;;;;5049772;28;20456;-40
2022/07/16 04:00:55;;;;;;;3.43;2.87;;;16.40;99.90;;;;;;5050053;28;20945;-40
2022/07/16 04:03:22;;;;;;;3.27;2.97;;;16.40;99.90;;;;;;5050118;28;20182;-40
2022/07/16 04:05:48;;;;;;;5.40;3.17;;;16.40;99.90;;;;;;5042508;28;20867;-40
2022/07/16 04:08:14;;;;;;;3.50;2.83;;;16.40;99.90;;;;;;5037838;28;20416;-40
2022/07/16 04:10:39;;;;;;;3.60;2.80;;;16.40;99.90;;;;;;5033929;28;20488;-40
2022/07/16 04:13:05;;;;;;;4.17;2.80;;;16.50;99.90;;;;;;5037332;28;20193;-40
2022/07/16 04:15:31;;;;;;;3.27;2.90;;;16.50;99.90;;;;;;5034058;28;20661;-41
2022/07/16 04:17:57;;;;;;;4.30;3.70;;;16.50;99.90;;;;;;5028072;28;20281;-42
2022/07/16 04:20:23;;;;;;;4.17;3.13;;;16.60;99.90;;;;;;5030058;28;20222;-40
2022/07/16 04:22:49;;;;;;;4.87;2.70;;;16.50;99.90;;;;;;5029924;28;20252;-43
2022/07/16 04:25:15;;;;;;;3.47;3.00;;;16.60;99.90;;;;;;5030051;28;20460;-40
2022/07/16 04:27:42;;;;;;;5.30;3.03;;;16.60;99.90;;;;;;5029537;28;20228;-41
2022/07/16 04:30:09;;;;;;;4.20;2.80;;;16.60;99.90;;;;;;5029906;28;21075;-41
2022/07/16 04:32:39;;;;;;;5.50;2.53;;;16.60;99.90;;;;;;5033042;28;20960;-40
2022/07/16 04:35:05;;;;;;;3.07;2.77;;;16.70;99.90;;;;;;5045483;28;20431;-40
2022/07/16 04:37:31;;;;;;;6.80;3.47;;;16.70;99.90;;;;;;5029472;28;20784;-41
2022/07/16 04:39:57;;;;;;;3.87;3.00;;;16.60;99.90;;;;;;5029954;28;20922;-41
2022/07/16 04:42:23;;;;;;;5.17;3.07;;;16.60;99.90;;;;;;5029935;28;20424;-41
2022/07/16 04:44:48;;;;;;;3.20;3.00;;;16.60;99.90;;;;;;5029598;28;20205;-40
2022/07/16 04:47:14;;;;;;;6.07;4.40;;;16.60;99.90;;;;;;5029345;28;20179;-41
2022/07/16 04:49:40;;;;;;;4.37;3.90;;;16.60;99.90;;;;;;5029550;28;20214;-40
2022/07/16 04:52:06;;;;;;;5.23;3.57;;;16.60;99.90;;;;;;5040108;28;20231;-40
2022/07/16 04:54:31;;;;;;;8.00;4.00;;;16.60;99.90;;;;;;5049620;28;20691;-40
2022/07/16 04:56:57;;;;;;;5.80;3.80;;;16.60;99.90;;;;;;5049087;28;20478;-40
2022/07/16 04:59:23;;;;;;;4.53;3.07;;;16.60;99.90;;;;;;5049150;28;20235;-42
2022/07/16 05:01:49;;;;;;;5.73;3.30;;;16.60;99.90;;;;;;5046510;28;20243;-41
2022/07/16 05:04:15;;;;;;;4.87;3.30;;;16.70;99.90;;;;;;5046178;28;20658;-40
2022/07/16 05:06:40;;;;;;;7.10;4.10;;;16.70;99.90;;;;;;5039213;28;20968;-41
2022/07/16 05:09:06;;;;;;;6.37;3.10;;;16.70;99.90;;;;;;5032397;28;20543;-40
2022/07/16 05:11:32;;;;;;;4.30;3.37;;;16.80;99.90;;;;;;5033660;28;20186;-41
2022/07/16 05:13:57;;;;;;;3.60;2.90;;;16.80;99.90;;;;;;5046508;28;20676;-40
2022/07/16 05:16:23;;;;;;;4.63;3.33;;;16.80;99.90;;;;;;5048205;28;20280;-40
2022/07/16 05:18:50;;;;;;;4.50;3.47;;;16.80;99.90;;;;;;5030454;28;20210;-41
2022/07/16 05:21:16;;;;;;;4.20;3.40;;;16.90;99.90;;;;;;5029684;28;20453;-40
2022/07/16 05:23:42;;;;;;;5.67;3.00;;;16.80;99.90;;;;;;5030059;28;20447;-40
2022/07/16 05:26:08;;;;;;;5.50;3.10;;;16.80;99.90;;;;;;5042208;28;20424;-41
2022/07/16 05:28:34;;;;;;;4.60;3.63;;;16.90;99.90;;;;;;5031534;28;20273;-40
2022/07/16 05:31:00;;;;;;;3.50;3.20;;;16.90;99.90;;;;;;5029351;28;20516;-40
2022/07/16 05:33:25;;;;;;;3.47;3.17;;;16.90;99.90;;;;;;5038917;28;20313;-40
2022/07/16 05:35:51;;;;;;;5.60;3.40;;;17.00;99.90;;;;;;5038991;28;20194;-40
2022/07/16 05:38:17;;;;;;;3.40;3.00;;;17.00;99.90;;;;;;5028612;28;20738;-42
2022/07/16 05:40:43;;;;;;;4.20;3.33;;;17.10;99.90;;;;;;5029386;28;20946;-40
2022/07/16 05:43:09;;;;;;;4.27;3.40;;;17.10;99.90;;;;;;5029050;28;20214;-41
2022/07/16 05:45:35;;;;;;;4.47;3.90;;;17.20;99.90;;;;;;5029371;28;20932;-40
2022/07/16 05:48:00;;;;;;;5.60;3.77;;;17.10;99.90;;;;;;5032121;28;20694;-41
2022/07/16 05:50:26;;;;;;;4.40;3.87;;;17.20;99.90;;;;;;5044919;28;20201;-40
2022/07/16 05:52:52;;;;;;;6.77;3.97;;;17.30;99.90;;;;;;5048899;28;20650;-41
2022/07/16 05:55:18;;;;;;;4.03;3.33;;;17.30;99.90;;;;;;5039423;28;20800;-40
2022/07/16 05:57:43;;;;;;;3.80;3.37;;;17.30;99.90;;;;;;5031762;28;20231;-43
2022/07/16 06:00:11;;;;;;;5.00;3.60;;;17.30;99.90;;;;;;5032257;28;20552;-40
2022/07/16 06:02:41;;;;;;;5.73;3.87;;;17.40;99.90;;;;;;5031925;28;20217;-41
2022/07/16 06:05:07;;;;;;;5.23;4.60;;;17.40;99.90;;;;;;5040707;28;20428;-40
2022/07/16 06:07:33;;;;;;;5.50;4.27;;;17.40;99.90;;;;;;5043579;28;20425;-40
2022/07/16 06:09:59;;;;;;;7.40;4.60;;;17.40;99.90;;;;;;5041813;28;20919;-42
2022/07/16 06:12:25;;;;;;;5.90;4.00;;;17.40;99.90;;;;;;5045261;28;20221;-40
2022/07/16 06:14:50;;;;;;;7.27;4.87;;;17.50;99.90;;;;;;5046244;28;20291;-40
2022/07/16 06:17:16;;;;;;;8.83;5.23;;;17.50;99.90;;;;;;5047081;28;20194;-40
2022/07/16 06:19:43;;;;;;;8.53;5.80;;;17.60;99.90;;;;;;5031347;28;20218;-43
2022/07/16 06:22:10;;;;;;;6.13;5.53;;;17.60;99.90;;;;;;5032099;28;20248;-42
2022/07/16 06:24:36;;;;;;;7.17;5.50;;;17.70;99.90;;;;;;5032111;28;20524;-41
2022/07/16 06:27:02;;;;;;;7.50;5.80;;;17.70;99.90;;;;;;5031664;28;20516;-40
2022/07/16 06:29:29;;;;;;;6.47;5.70;;;17.70;99.90;;;;;;5032047;28;20920;-41
2022/07/16 06:31:54;;;;;;;6.73;5.10;;;17.70;99.90;;;;;;5032087;28;20949;-40
2022/07/16 06:34:20;;;;;;;5.40;4.90;;;17.70;99.90;;;;;;5037417;28;20424;-41
2022/07/16 06:36:45;;;;;;;5.80;5.10;;;17.80;99.90;;;;;;5038657;28;20273;-40
2022/07/16 06:39:12;;;;;;;5.53;4.90;;;17.80;99.90;;;;;;5040673;28;20206;-40
2022/07/16 06:41:38;;;;;;;5.70;4.73;;;17.90;99.90;;;;;;5040649;28;20182;-42
2022/07/16 06:44:09;;;;;;;8.57;4.50;;;17.90;99.90;;;;;;5047636;28;20421;-41
2022/07/16 06:46:35;;;;;;;4.53;4.10;;;17.90;99.90;;;;;;5032937;28;20425;-40
2022/07/16 06:49:01;;;;;;;6.50;4.83;;;18.00;99.90;;;;;;5031220;28;21066;-40
2022/07/16 06:51:27;;;;;;;5.70;5.10;;;18.10;99.90;;;;;;5036621;28;20420;-42
2022/07/16 06:53:53;;;;;;;6.57;4.67;;;18.20;99.90;;;;;;5046564;28;20679;-41
2022/07/16 06:56:18;;;;;;;4.23;3.83;;;18.30;99.90;;;;;;5045126;28;20174;-41
2022/07/16 06:58:44;;;;;;;5.00;4.20;;;18.40;99.90;;;;;;5047889;28;20316;-41
2022/07/16 07:01:11;;;;;;;4.37;3.27;;;18.60;99.90;;;;;;5033252;28;20186;-40
2022/07/16 07:03:40;;;;;;;3.93;3.07;;;18.60;99.90;;;;;;5029988;28;20194;-41
2022/07/16 07:06:07;;;;;;;4.03;3.40;;;18.60;99.90;;;;;;5031294;28;20444;-41
2022/07/16 07:08:33;;;;;;;3.03;2.83;;;18.60;99.90;;;;;;5030363;28;20424;-41
2022/07/16 07:10:59;;;;;;;3.17;2.80;;;18.50;99.90;;;;;;5031418;28;20420;-40
2022/07/16 07:13:27;;;;;;;4.93;3.50;;;18.50;99.90;;;;;;5036354;28;20193;-42
2022/07/16 07:15:52;;;;;;;3.47;3.13;;;18.40;99.90;;;;;;5037293;28;20420;-42
2022/07/16 07:18:18;;;;;;;3.10;2.80;;;18.40;99.90;;;;;;5043213;28;20519;-41
2022/07/16 07:20:44;;;;;;;6.37;3.13;;;18.40;99.90;;;;;;5040066;28;20185;-40
2022/07/16 07:23:10;;;;;;;2.63;2.43;;;18.40;99.90;;;;;;5041804;28;20543;-40
2022/07/16 07:25:36;;;;;;;3.30;3.00;;;18.30;99.90;;;;;;5048827;28;20177;-40
2022/07/16 07:28:02;;;;;;;2.50;2.30;;;18.30;99.90;;;;;;5045214;28;20443;-40
2022/07/16 07:30:29;;;;;;;5.87;3.20;;;18.30;99.90;;;;;;5034434;28;20783;-40
2022/07/16 07:32:55;;;;;;;5.23;2.70;;;18.30;99.90;;;;;;5044305;28;20761;-40
2022/07/16 07:35:21;;;;;;;4.63;2.20;;;18.40;99.90;;;;;;5035492;28;20470;-41
2022/07/16 07:37:47;;;;;;;6.97;2.23;;;18.40;99.90;;;;;;5047233;28;21026;-41
2022/07/16 07:40:13;;;;;;;7.33;2.63;;;18.50;99.90;;;;;;5043015;28;20461;-42
2022/07/16 07:42:39;;;;;;;3.70;1.73;;;18.60;99.90;;;;;;5049626;28;20210;-41
2022/07/16 07:45:06;;;;;;;3.07;1.50;;;18.80;99.90;;;;;;5045039;28;20417;-41
2022/07/16 07:47:32;;;;;;;5.43;1.60;;;19.00;99.90;;;;;;5036802;28;20416;-42
2022/07/16 07:49:58;;;;;;;16.37;3.07;;;19.20;99.90;;;;;;5030037;28;20429;-42
2022/07/16 07:52:24;;;;;;;11.53;2.03;;;19.30;99.90;;;;;;5042826;28;20982;-41
2022/07/16 07:54:49;;;;;;;2.73;1.27;;;19.40;99.90;;;;;;5050053;28;20478;-41
2022/07/16 07:57:15;;;;;;;5.13;1.60;;;19.50;99.90;;;;;;5043301;28;20311;-40
2022/07/16 07:59:41;;;;;;;1.83;1.33;;;19.60;99.90;;;;;;5042061;28;20255;-41
2022/07/16 08:02:07;;;;;;;1.70;1.13;;;19.70;99.90;;;;;;5045168;28;20276;-42
2022/07/16 08:04:33;;;;;;;3.30;1.30;;;19.70;99.90;;;;;;5031086;28;20194;-41
2022/07/16 08:06:59;;;;;;;3.47;1.53;;;19.80;99.90;;;;;;5029505;28;20936;-42
2022/07/16 08:09:25;;;;;;;1.50;1.20;;;19.80;99.90;;;;;;5029303;28;20676;-40
2022/07/16 08:11:50;;;;;;;1.90;1.33;;;19.90;99.90;;;;;;5030438;28;20425;-41
2022/07/16 08:14:16;;;;;;;2.60;1.33;;;19.90;99.90;;;;;;5034677;28;20201;-42
2022/07/16 08:16:42;;;;;;;1.83;1.30;;;20.00;99.90;;;;;;5046898;28;20268;-41
2022/07/16 08:19:08;;;;;;;2.87;1.20;;;20.10;99.90;;;;;;5038783;28;20686;-41
2022/07/16 08:21:34;;;;;;;6.90;1.50;;;20.10;99.90;;;;;;5047247;28;20231;-41
2022/07/16 08:26:45;;;;;;;8.60;2.00;;;20.10;99.90;;;;;;5044972;28;20790;-41
2022/07/16 08:29:10;;;;;;;12.63;2.37;;;20.00;99.90;;;;;;5045770;28;20431;-41
2022/07/16 08:31:36;;;;;;;25.27;3.00;;;19.90;99.90;;;;;;5045269;28;20186;-41
2022/07/16 08:34:02;;;;;;;4.83;2.00;;;19.90;99.90;;;;;;5036301;28;20201;-40
2022/07/16 08:36:28;;;;;;;74.20;8.20;;;19.90;99.90;;;;;;5038159;28;20263;-45
2022/07/16 08:38:54;;;;;;;1.90;1.30;;;19.90;99.90;;;;;;5039169;28;20666;-41
2022/07/16 08:41:20;;;;;;;1.30;1.20;;;19.90;99.90;;;;;;5042943;28;20621;-43
2022/07/16 08:43:46;;;;;;;1.93;1.40;;;19.90;99.90;;;;;;5045741;28;20416;-42
2022/07/16 08:46:13;;;;;;;1.53;1.33;;;19.90;99.90;;;;;;5038443;28;20435;-42
2022/07/16 08:48:38;;;;;;;1.47;1.30;;;19.90;99.90;;;;;;5043302;28;20244;-43
2022/07/16 08:51:09;;;;;;;2.47;1.40;;;20.00;99.90;;;;;;5039892;28;20939;-43
2022/07/16 08:53:36;;;;;;;2.30;1.27;;;20.00;99.90;;;;;;5040763;28;20190;-40
2022/07/16 08:56:03;;;;;;;2.17;1.70;;;20.00;99.90;;;;;;5046828;28;20552;-40
2022/07/16 08:58:31;;;;;;;3.20;1.40;;;20.00;99.90;;;;;;5039823;28;20433;-41
2022/07/16 09:00:58;;;;;;;1.40;1.30;;;20.00;99.70;;;;;;5039418;28;20825;-40
2022/07/16 09:03:24;;;;;;;2.97;1.27;;;20.20;99.90;;;;;;5044983;28;20432;-41
2022/07/16 09:05:50;;;;;;;1.80;1.20;;;20.30;99.90;;;;;;5040509;28;20449;-40
2022/07/16 09:08:17;;;;;;;1.40;1.30;;;20.40;99.50;;;;;;5027631;28;20190;-41
2022/07/16 09:10:43;;;;;;;1.40;1.30;;;20.40;99.20;;;;;;5029626;28;20433;-42
2022/07/16 09:13:10;;;;;;;1.63;1.53;;;20.50;99.70;;;;;;5037313;28;20438;-41
2022/07/16 09:15:38;;;;;;;2.60;1.50;;;20.60;99.50;;;;;;5032405;28;20439;-41
2022/07/16 09:18:17;;;;;;;3.23;1.37;;;20.60;99.10;;;;;;5028273;28;20520;-40
2022/07/16 09:21:03;;;;;;;2.27;1.50;;;20.70;99.40;;;;;;5031262;28;20495;-42
2022/07/16 09:23:32;;;;;;;1.70;1.57;;;20.60;99.40;;;;;;5033079;28;20498;-41
2022/07/16 09:26:01;;;;;;;2.30;2.07;;;20.60;99.20;;;;;;5033189;28;20424;-44
2022/07/16 09:28:43;;;;;;;1.83;1.37;;;20.60;98.80;;;;;;5032563;28;20946;-41
2022/07/16 09:31:29;;;;;;;1.93;1.40;;;20.60;98.90;;;;;;5033333;28;20483;-40
2022/07/16 09:34:10;;;;;;;2.80;1.53;;;20.70;99.20;;;;;;5040501;28;20439;-41
2022/07/16 09:36:37;;;;;;;3.30;1.30;;;21.00;98.80;;;;;;5052387;28;20447;-40
2022/07/16 09:39:05;;;;;;;1.00;0.80;;;21.20;98.90;;;;;;5052808;28;20463;-41
2022/07/16 09:41:45;;;;;;;1.67;1.20;;;21.40;97.90;;;;;;5053010;28;20428;-42
2022/07/16 09:44:19;;;;;;;2.40;1.53;;;21.30;97.10;;;;;;5050805;28;20432;-44
2022/07/16 09:47:01;;;;;;;1.40;1.23;;;21.20;97.20;;;;;;5048486;28;20435;-40
2022/07/16 09:49:27;;;;;;;2.17;1.20;;;21.20;97.30;;;;;;5044846;28;20883;-43
2022/07/16 09:51:53;;;;;;;3.90;1.67;;;21.30;97.20;;;;;;5041297;28;20424;-42
2022/07/16 09:54:30;;;;;;;4.60;1.37;;;21.40;97.30;;;;;;5051260;28;20493;-40
2022/07/16 09:57:11;;;;;;;2.33;1.67;;;21.20;97.20;;;;;;5047331;28;20243;-40
2022/07/16 09:59:38;;;;;;;3.60;1.60;;;21.20;97.30;;;;;;5033077;28;20492;-42
2022/07/16 10:02:04;;;;;;;3.90;1.37;;;21.10;97.10;;;;;;5032710;28;20435;-40
2022/07/16 10:04:30;;;;;;;1.53;1.43;;;21.10;97.80;;;;;;5032439;28;20421;-43
2022/07/16 10:06:57;;;;;;;3.17;1.63;;;21.20;98.40;;;;;;5031975;28;21021;-40
2022/07/16 10:09:24;;;;;;;1.90;1.40;;;21.50;97.80;;;;;;5032464;28;20461;-41
2022/07/16 10:11:52;;;;;;;2.20;1.40;;;21.70;97.60;;;;;;5032300;28;20433;-40
2022/07/16 10:14:18;;;;;;;3.17;1.80;;;21.90;97.50;;;;;;5042973;28;20437;-44
2022/07/16 10:16:48;;;;;;;1.53;1.20;;;22.20;96.80;;;;;;5031936;28;20835;-42
2022/07/16 10:19:14;;;;;;;1.77;1.13;;;22.30;95.70;;;;;;5038307;28;20464;-41
2022/07/16 10:22:01;;;;;;;1.63;1.30;;;22.20;95.50;;;;;;5052242;28;20424;-41
2022/07/16 10:24:43;;;;;;;3.03;1.27;;;22.20;96.00;;;;;;5051593;28;21204;-44
2022/07/16 10:27:34;;;;;;;1.77;1.20;;;22.40;95.90;;;;;;5051450;28;20439;-42
2022/07/16 10:30:16;;;;;;;4.77;1.30;;;22.30;95.50;;;;;;5051958;28;20519;-42
2022/07/16 10:33:00;;;;;;;1.27;0.93;;;22.30;95.40;;;;;;5050972;28;20432;-41
2022/07/16 10:35:28;;;;;;;1.90;1.30;;;22.30;95.60;;;;;;5051909;28;20424;-41
2022/07/16 10:38:08;;;;;;;3.50;2.50;;;22.30;95.30;;;;;;5051421;28;20446;-43
2022/07/16 10:40:36;;;;;;;1.67;1.20;;;22.40;95.60;;;;;;5051711;28;20475;-41
2022/07/16 10:43:16;;;;;;;3.53;1.60;;;22.60;95.60;;;;;;5051567;28;20432;-42
2022/07/16 10:45:55;;;;;;;1.13;1.00;;;22.70;95.20;;;;;;5051814;28;20419;-41
2022/07/16 10:48:25;;;;;;;1.30;1.20;;;22.60;94.70;;;;;;5051057;28;20477;-43
2022/07/16 10:51:16;;;;;;;5.73;1.30;;;22.50;94.40;;;;;;5038090;28;20425;-43
2022/07/16 10:53:57;;;;;;;2.93;1.20;;;22.40;94.70;;;;;;5031650;28;20482;-40
2022/07/16 10:56:34;;;;;;;2.60;1.70;;;22.30;94.00;;;;;;5031490;28;20413;-42
2022/07/16 10:59:07;;;;;;;2.20;1.20;;;22.40;94.20;;;;;;5031418;28;20464;-40
2022/07/16 11:01:39;;;;;;;1.97;1.07;;;22.60;94.90;;;;;;5030216;28;20417;-40
2022/07/16 11:04:05;;;;;;;2.17;1.00;;;22.70;94.10;;;;;;5031595;28;20778;-41
2022/07/16 11:06:32;;;;;;;4.77;1.10;;;22.90;94.80;;;;;;5030979;28;20824;-42
2022/07/16 11:09:04;;;;;;;1.30;1.00;;;23.10;94.00;;;;;;5031247;28;20551;-40
2022/07/16 11:11:37;;;;;;;2.50;1.23;;;23.20;93.10;;;;;;5031302;28;20566;-48
2022/07/16 11:14:05;;;;;;;3.63;1.27;;;23.00;91.60;;;;;;5042649;28;20520;-42
2022/07/16 11:16:31;;;;;;;3.33;1.53;;;22.90;92.90;;;;;;5030739;28;20431;-43
2022/07/16 11:19:04;;;;;;;2.50;1.07;;;22.80;93.10;;;;;;5029856;28;20468;-46
2022/07/16 11:21:31;;;;;;;5.50;1.67;;;22.80;93.10;;;;;;5031056;28;20939;-42
2022/07/16 11:23:59;;;;;;;1.53;0.87;;;22.70;92.30;;;;;;5030964;28;20646;-41
2022/07/16 11:26:25;;;;;;;2.03;1.10;;;22.50;92.40;;;;;;5029663;28;20425;-41
2022/07/16 11:28:53;;;;;;;1.90;1.33;;;22.60;93.30;;;;;;5028796;28;21019;-42
2022/07/16 11:31:37;;;;;;;4.90;1.70;;;22.70;93.20;;;;;;5030847;28;20429;-41
2022/07/16 11:34:06;;;;;;;2.10;1.20;;;22.90;93.30;;;;;;5038451;28;20784;-43
2022/07/16 11:36:38;;;;;;;3.43;1.17;;;22.90;92.70;;;;;;5050365;28;20419;-43
2022/07/16 11:39:08;;;;;;;3.43;1.43;;;23.00;92.20;;;;;;5050426;28;20460;-44
2022/07/16 11:41:36;;;;;;;2.50;1.30;;;23.10;92.30;;;;;;5050407;28;20428;-40
2022/07/16 11:44:15;;;;;;;3.93;1.30;;;23.20;92.70;;;;;;5050621;28;20470;-43
2022/07/16 11:46:47;;;;;;;2.90;1.67;;;23.40;92.70;;;;;;5049804;28;20430;-40
2022/07/16 11:49:31;;;;;;;1.80;0.90;;;23.50;92.70;;;;;;5050327;28;20464;-43
2022/07/16 11:52:03;;;;;;;3.13;1.30;;;23.70;91.10;;;;;;5030387;28;20429;-41
2022/07/16 11:54:34;;;;;;;3.33;1.17;;;23.70;90.20;;;;;;5030414;28;20440;-41
2022/07/16 11:57:00;;;;;;;2.13;1.10;;;23.80;90.30;;;;;;5029853;28;20999;-42
2022/07/16 11:59:27;;;;;;;2.23;1.23;;;23.80;88.30;;;;;;5030447;28;20611;-41
2022/07/16 12:02:03;;;;;;;1.70;1.10;;;23.90;88.40;;;;;;5030445;28;20277;-41
2022/07/16 12:04:38;;;;;;;4.03;1.00;;;23.90;89.80;;;;;;5030306;28;20796;-42
2022/07/16 12:07:13;;;;;;;1.73;0.90;;;24.00;89.80;;;;;;5029631;28;20456;-43
2022/07/16 12:09:44;;;;;;;1.80;1.07;;;24.00;87.20;;;;;;5035767;28;20420;-43
2022/07/16 12:12:13;;;;;;;1.43;0.90;;;24.10;85.70;;;;;;5041806;28;20520;-41
2022/07/16 12:14:55;;;;;;;9.87;1.50;;;24.10;85.20;;;;;;5044670;28;20894;-40
2022/07/16 12:17:27;;;;;;;1.27;0.93;;;24.10;85.80;;;;;;5032006;28;20479;-41
2022/07/16 12:20:13;;;;;;;3.17;1.37;;;24.10;84.80;;;;;;5027372;28;21169;-41
2022/07/16 12:23:02;;;;;;;1.47;0.90;;;24.10;86.10;;;;;;5037600;28;20420;-40
2022/07/16 12:25:28;;;;;;;2.10;1.00;;;24.20;85.20;;;;;;5050020;28;20481;-40
2022/07/16 12:28:00;;;;;;;6.53;1.10;;;24.00;82.20;;;;;;5049515;28;20420;-40
2022/07/16 12:30:31;;;;;;;2.27;1.10;;;24.00;83.00;;;;;;5043354;28;20190;-43
2022/07/16 12:32:59;;;;;;;1.90;1.07;;;24.10;83.60;;;;;;5043489;28;20424;-42
2022/07/16 12:35:39;;;;;;;3.43;1.27;;;24.00;81.80;;;;;;5030760;28;20436;-42
2022/07/16 12:38:05;;;;;;;1.90;1.20;;;24.00;80.20;;;;;;5031617;28;20806;-41
2022/07/16 12:40:31;;;;;;;1.80;1.00;;;24.00;81.20;;;;;;5046860;28;20480;-41
2022/07/16 12:42:58;;;;;;;4.80;1.60;;;24.00;79.90;;;;;;5041248;28;21157;-41
2022/07/16 12:45:25;;;;;;;1.40;0.87;;;23.80;82.20;;;;;;5044218;28;20451;-41
2022/07/16 12:47:52;;;;;;;1.80;1.03;;;23.90;84.80;;;;;;5037747;28;20464;-41
2022/07/16 12:50:18;;;;;;;1.83;1.10;;;24.00;85.40;;;;;;5050793;28;20463;-42
2022/07/16 12:52:44;;;;;;;2.10;1.27;;;24.10;83.10;;;;;;5046469;28;20464;-43
2022/07/16 13:00:38;;;;;;;2.43;0.93;;;24.40;82.60;;;;;;5036855;28;20473;-41